Terminal Aerodrome Forecast
Issued by NWS Upton, NY

Home | Current Version | Previous Version | Text Only | Print | Product List | Glossary On
Versions: 1 2 3 4 5 6 7 8 9 10 11 12 13 14 15 16 17 18 19 20 21 22 23 24 25 26 27 28 29 30
000
FTUS41 KOKX 031131
TAFEWR
TAF
KEWR 031131Z 0312/0418 VRB05KT 3SM RA BR SCT006 BKN015
      TEMPO 0312/0313 2SM +RA BR BKN006
     FM031300 06007KT 4SM -RA BR OVC015
     FM031600 06006KT 6SM -DZ BR BKN010 OVC035
     FM040000 VRB04KT P6SM BKN025
     FM040800 04006KT P6SM BKN015 OVC030
     FM041300 06007KT P6SM SCT020 BKN050=

USA.gov is the U.S. government's official web portal to all federal, state and local government web resources and services.